createdAt,value
2022-12-08T00:01:35.106Z,10.50
2022-12-08T00:04:04.546Z,15.00
2022-12-08T00:06:54.077Z,16.00
2022-12-08T00:09:37.918Z,19.00
2022-12-08T00:12:08.152Z,15.00
2022-12-08T00:14:44.038Z,18.00
2022-12-08T00:17:14.325Z,16.33
2022-12-08T00:19:43.284Z,12.50
2022-12-08T00:22:12.384Z,14.33
2022-12-08T00:24:41.459Z,15.00
2022-12-08T00:27:10.671Z,15.00
2022-12-08T00:29:39.022Z,12.00
2022-12-08T00:32:07.553Z,17.00
2022-12-08T00:34:35.959Z,11.00
2022-12-08T00:37:05.059Z,12.00
2022-12-08T00:39:33.271Z,18.50
2022-12-08T00:42:13.553Z,16.50
2022-12-08T00:44:43.882Z,13.50
2022-12-08T00:47:13.155Z,15.00
2022-12-08T00:49:41.883Z,15.67
2022-12-08T00:52:10.145Z,14.33
2022-12-08T00:54:38.369Z,15.50
2022-12-08T00:57:06.607Z,17.67
2022-12-08T00:59:34.885Z,17.00
2022-12-08T01:02:03.154Z,14.50
2022-12-08T01:04:31.386Z,12.50
2022-12-08T01:06:59.618Z,20.67
2022-12-08T01:09:27.766Z,15.50
2022-12-08T01:11:56.353Z,17.50
2022-12-08T01:14:24.553Z,14.50
2022-12-08T01:16:53.219Z,12.00
2022-12-08T01:19:21.498Z,14.00
2022-12-08T01:21:49.715Z,16.00
2022-12-08T01:24:19.968Z,13.00
2022-12-08T01:26:49.776Z,18.00
2022-12-08T01:29:18.265Z,16.00
2022-12-08T01:31:46.594Z,12.75
2022-12-08T01:34:14.828Z,14.00
2022-12-08T01:36:44.629Z,11.00
2022-12-08T01:39:18.227Z,13.00
2022-12-08T01:41:47.845Z,16.33
2022-12-08T01:44:15.963Z,19.00
2022-12-08T01:46:46.155Z,16.00
2022-12-08T01:49:22.881Z,12.50
2022-12-08T01:51:57.174Z,14.00
2022-12-08T01:54:29.825Z,15.00
2022-12-08T01:57:15.394Z,20.50
2022-12-08T01:59:49.169Z,14.50
2022-12-08T02:02:17.459Z,14.50
2022-12-08T02:04:45.786Z,14.00
2022-12-08T02:07:14.989Z,20.00
2022-12-08T02:09:43.325Z,19.00
2022-12-08T02:12:11.971Z,10.00
2022-12-08T02:14:40.324Z,17.33
2022-12-08T02:17:17.670Z,17.25
2022-12-08T02:20:09.686Z,16.00
2022-12-08T02:22:52.995Z,16.00
2022-12-08T02:25:33.456Z,10.50
2022-12-08T02:28:36.785Z,12.50
2022-12-08T02:31:30.728Z,15.00
2022-12-08T02:34:26.721Z,15.00
2022-12-08T02:37:13.016Z,15.00
2022-12-08T02:39:59.855Z,21.00
2022-12-08T02:42:33.261Z,12.50
2022-12-08T02:45:15.529Z,11.00
2022-12-08T02:47:44.573Z,17.50
2022-12-08T02:50:13.081Z,18.33
2022-12-08T02:52:46.115Z,12.67
2022-12-08T02:55:26.143Z,14.33
2022-12-08T02:58:01.054Z,17.00
2022-12-08T03:00:39.044Z,20.00
2022-12-08T03:03:42.292Z,14.25
2022-12-08T03:06:47.239Z,10.00
2022-12-08T03:09:39.096Z,14.50
2022-12-08T03:12:07.274Z,15.00
2022-12-08T03:14:37.528Z,11.00
2022-12-08T03:17:06.080Z,12.00
2022-12-08T03:19:39.763Z,10.33
2022-12-08T03:22:09.526Z,18.50
2022-12-08T03:24:40.227Z,14.00
2022-12-08T03:27:10.112Z,16.00
2022-12-08T03:29:38.433Z,15.50
2022-12-08T03:32:18.730Z,16.33
2022-12-08T03:34:48.783Z,12.00
2022-12-08T03:37:17.515Z,15.50
2022-12-08T03:39:45.752Z,12.00
2022-12-08T03:42:13.944Z,16.00
2022-12-08T03:44:42.105Z,11.00
2022-12-08T03:47:10.317Z,16.25
2022-12-08T03:49:38.482Z,15.00
2022-12-08T03:52:06.664Z,15.00
2022-12-08T03:54:34.841Z,14.00
2022-12-08T03:57:02.967Z,12.67
2022-12-08T03:59:31.107Z,11.67
2022-12-08T04:01:59.360Z,15.00
2022-12-08T04:04:27.526Z,13.00
2022-12-08T04:06:55.600Z,12.50
2022-12-08T04:09:23.926Z,15.50
2022-12-08T04:11:52.110Z,13.00
2022-12-08T04:14:20.498Z,19.00
2022-12-08T04:16:48.646Z,13.00
2022-12-08T04:19:16.841Z,14.00
2022-12-08T04:21:45.038Z,16.00
2022-12-08T04:24:13.344Z,16.00
2022-12-08T04:26:41.515Z,13.00
2022-12-08T04:29:09.665Z,14.67
2022-12-08T04:31:37.975Z,11.33
2022-12-08T04:34:06.183Z,14.00
2022-12-08T04:36:34.356Z,14.00
2022-12-08T04:39:02.566Z,13.00
2022-12-08T04:41:30.717Z,10.50
2022-12-08T04:43:58.904Z,12.00
2022-12-08T04:46:27.089Z,15.00
2022-12-08T04:48:55.243Z,13.25
2022-12-08T04:51:23.436Z,18.00
2022-12-08T04:53:51.607Z,19.50
2022-12-08T04:56:20.054Z,18.50
2022-12-08T04:58:48.189Z,16.00
2022-12-08T05:01:16.528Z,9.00
2022-12-08T05:03:44.708Z,11.00
2022-12-08T05:06:14.290Z,13.33
2022-12-08T05:08:43.365Z,17.00
2022-12-08T05:11:13.193Z,11.67
2022-12-08T05:13:41.393Z,15.00
2022-12-08T05:16:12.063Z,17.00
2022-12-08T05:18:41.107Z,16.50
2022-12-08T05:21:10.096Z,11.00
2022-12-08T05:23:38.497Z,10.50
2022-12-08T05:26:06.764Z,20.00
2022-12-08T05:28:43.251Z,14.00
2022-12-08T05:31:14.005Z,17.00
2022-12-08T05:33:43.306Z,19.00
2022-12-08T05:36:15.583Z,16.00
2022-12-08T05:38:44.589Z,13.00
2022-12-08T05:41:20.530Z,22.50
2022-12-08T05:43:49.109Z,17.00
2022-12-08T05:46:17.605Z,16.50
2022-12-08T05:48:45.861Z,18.50
2022-12-08T05:51:22.498Z,14.33
2022-12-08T05:53:51.831Z,18.50
2022-12-08T05:56:20.986Z,19.00
2022-12-08T05:58:49.614Z,15.00
2022-12-08T06:01:38.205Z,11.33
2022-12-08T06:04:06.446Z,13.50
2022-12-08T06:06:35.394Z,11.00
2022-12-08T06:09:04.829Z,14.00
2022-12-08T06:11:33.786Z,19.00
2022-12-08T06:14:02.371Z,19.00
2022-12-08T06:16:30.850Z,20.00
2022-12-08T06:18:59.154Z,20.00
2022-12-08T06:21:27.302Z,15.33
2022-12-08T06:23:55.725Z,19.33
2022-12-08T06:26:23.983Z,17.00
2022-12-08T06:28:52.551Z,22.00
2022-12-08T06:31:23.407Z,17.00
2022-12-08T06:33:52.295Z,20.50
2022-12-08T06:36:23.499Z,19.00
2022-12-08T06:38:51.825Z,18.00
2022-12-08T06:41:19.994Z,20.33
2022-12-08T06:43:48.365Z,20.33
2022-12-08T06:46:19.490Z,17.00
2022-12-08T06:48:48.017Z,18.50
2022-12-08T06:51:18.825Z,16.00
2022-12-08T06:53:47.680Z,20.33
2022-12-08T06:56:16.764Z,18.67
2022-12-08T06:58:50.439Z,25.00
2022-12-08T07:01:20.737Z,19.00
2022-12-08T07:03:49.107Z,11.50
2022-12-08T07:06:21.158Z,18.00
2022-12-08T07:08:49.455Z,18.00
2022-12-08T07:11:21.894Z,13.00
2022-12-08T07:13:51.227Z,19.00
2022-12-08T07:16:19.532Z,23.50
2022-12-08T07:18:47.688Z,17.67
2022-12-08T07:21:17.126Z,20.50
2022-12-08T07:23:54.294Z,19.33
2022-12-08T07:26:27.014Z,16.00
2022-12-08T07:28:55.221Z,22.00
2022-12-08T07:31:25.690Z,17.67
2022-12-08T07:33:54.310Z,21.00
2022-12-08T07:36:22.669Z,19.00
2022-12-08T07:38:51.162Z,23.00
2022-12-08T07:41:23.499Z,19.50
2022-12-08T07:43:53.969Z,20.00
2022-12-08T07:46:23.759Z,16.50
2022-12-08T07:48:53.284Z,14.00
2022-12-08T07:51:21.860Z,17.67
2022-12-08T07:53:54.147Z,24.25
2022-12-08T07:56:23.437Z,18.00
2022-12-08T07:58:51.752Z,21.00
2022-12-08T08:01:26.439Z,18.33
2022-12-08T08:03:56.883Z,14.00
2022-12-08T08:06:25.093Z,19.00
2022-12-08T08:08:53.370Z,15.00
2022-12-08T08:11:22.042Z,18.00
2022-12-08T08:13:51.334Z,23.00
2022-12-08T08:16:20.315Z,19.00
2022-12-08T08:18:52.051Z,23.00
2022-12-08T08:24:09.380Z,19.00
2022-12-08T08:26:38.057Z,16.25
2022-12-08T08:29:06.194Z,17.50
2022-12-08T08:31:34.517Z,16.00
2022-12-08T08:34:06.622Z,16.00
2022-12-08T08:36:35.005Z,11.67
2022-12-08T08:39:04.376Z,20.50
2022-12-08T08:41:33.079Z,23.00
2022-12-08T08:44:01.319Z,15.00
2022-12-08T08:46:29.664Z,10.50
2022-12-08T08:48:58.336Z,20.00
2022-12-08T08:51:26.841Z,16.50
2022-12-08T08:53:55.042Z,24.00
2022-12-08T08:56:23.312Z,11.00
2022-12-08T08:58:53.279Z,17.50
2022-12-08T09:01:25.709Z,16.00
2022-12-08T09:03:54.105Z,14.00
2022-12-08T09:06:22.886Z,16.00
2022-12-08T09:08:51.298Z,16.33
2022-12-08T09:11:19.499Z,8.50
2022-12-08T09:13:49.633Z,17.50
2022-12-08T09:16:18.702Z,22.00
2022-12-08T09:18:49.527Z,13.50
2022-12-08T09:21:23.040Z,20.50
2022-12-08T09:23:53.274Z,15.00
2022-12-08T09:26:22.717Z,20.50
2022-12-08T09:28:52.190Z,14.00
2022-12-08T09:31:21.620Z,18.50
2022-12-08T09:33:53.556Z,16.00
2022-12-08T09:36:21.983Z,22.00
2022-12-08T09:38:51.281Z,16.50
2022-12-08T09:41:44.807Z,19.00
2022-12-08T09:44:46.723Z,21.00
2022-12-08T09:47:37.446Z,21.00
2022-12-08T09:50:18.039Z,21.67
2022-12-08T09:53:10.873Z,15.00
2022-12-08T09:55:46.803Z,19.67
2022-12-08T09:58:25.053Z,20.00
2022-12-08T10:00:53.205Z,20.00
2022-12-08T10:03:25.659Z,25.00
2022-12-08T10:06:08.134Z,17.00
2022-12-08T10:09:02.126Z,20.00
2022-12-08T10:11:44.665Z,18.00
2022-12-08T10:14:27.716Z,18.50
2022-12-08T10:17:05.271Z,17.67
2022-12-08T10:19:34.840Z,20.00
2022-12-08T10:22:12.608Z,20.00
2022-12-08T10:24:54.999Z,17.75
2022-12-08T10:27:23.929Z,24.00
2022-12-08T10:29:52.207Z,21.00
2022-12-08T10:32:23.339Z,18.00
2022-12-08T10:35:06.473Z,13.00
2022-12-08T10:37:34.837Z,21.00
2022-12-08T10:40:19.037Z,19.50
2022-12-08T10:42:54.382Z,13.00
2022-12-08T10:45:23.327Z,17.00
2022-12-08T10:48:04.165Z,21.00
2022-12-08T10:50:35.759Z,16.00
2022-12-08T10:53:10.113Z,19.33
2022-12-08T10:55:47.521Z,19.00
2022-12-08T10:58:37.145Z,21.50
2022-12-08T11:01:15.235Z,23.50
2022-12-08T11:03:46.432Z,20.50
2022-12-08T11:06:22.496Z,22.50
2022-12-08T11:08:54.750Z,19.50
2022-12-08T11:11:46.139Z,17.00
2022-12-08T11:14:22.970Z,17.00
2022-12-08T11:16:53.935Z,14.67
2022-12-08T11:19:27.762Z,20.00
2022-12-08T11:21:55.949Z,16.00
2022-12-08T11:24:28.620Z,18.33
2022-12-08T11:27:04.301Z,20.00
2022-12-08T11:29:34.440Z,19.00
2022-12-08T11:32:12.326Z,17.00
2022-12-08T11:34:47.021Z,17.00
2022-12-08T11:37:25.250Z,15.33
2022-12-08T11:39:57.249Z,19.25
2022-12-08T11:42:32.400Z,12.50
2022-12-08T11:45:06.900Z,18.00
2022-12-08T11:47:45.583Z,17.00
2022-12-08T11:50:33.188Z,15.50
2022-12-08T11:53:02.024Z,19.33
2022-12-08T11:55:43.935Z,15.50
2022-12-08T11:58:53.582Z,18.50
2022-12-08T12:01:26.855Z,17.33
2022-12-08T12:03:54.908Z,19.50
2022-12-08T12:06:46.499Z,14.00
2022-12-08T12:09:28.494Z,13.00
2022-12-08T12:12:19.438Z,25.50
2022-12-08T12:15:26.564Z,22.00
2022-12-08T12:18:11.921Z,16.00
2022-12-08T12:20:53.583Z,18.00
2022-12-08T12:23:29.186Z,18.00
2022-12-08T12:26:01.003Z,16.00
2022-12-08T12:28:52.489Z,18.33
2022-12-08T12:31:25.209Z,17.00
2022-12-08T12:33:57.993Z,16.50
2022-12-08T12:36:26.603Z,15.67
2022-12-08T12:39:01.548Z,19.50
2022-12-08T12:41:48.958Z,17.00
2022-12-08T12:44:22.864Z,19.00
2022-12-08T12:46:50.997Z,18.50
2022-12-08T12:49:40.944Z,16.67
2022-12-08T12:52:24.238Z,18.00
2022-12-08T12:54:52.351Z,17.25
2022-12-08T12:57:20.469Z,18.67
2022-12-08T13:00:08.428Z,18.50
2022-12-08T13:02:36.806Z,17.67
2022-12-08T13:05:21.245Z,13.50
2022-12-08T13:08:17.158Z,17.00
2022-12-08T13:10:57.888Z,16.50
2022-12-08T13:13:26.161Z,19.00
2022-12-08T13:16:15.433Z,19.50
2022-12-08T13:18:53.115Z,17.00
2022-12-08T13:21:23.517Z,15.50
2022-12-08T13:24:10.494Z,12.33
2022-12-08T13:26:48.668Z,19.50
2022-12-08T13:29:25.679Z,15.00
2022-12-08T13:31:55.495Z,19.00
2022-12-08T13:34:41.470Z,18.50
2022-12-08T13:37:15.765Z,17.67
2022-12-08T13:39:49.698Z,15.50
2022-12-08T13:42:36.664Z,14.67
2022-12-08T13:48:39.231Z,18.00
2022-12-08T13:57:11.612Z,20.00
2022-12-08T13:59:44.979Z,19.50
2022-12-08T14:02:25.380Z,18.00
2022-12-08T14:07:44.355Z,19.50
2022-12-08T14:10:39.019Z,18.33
2022-12-08T14:13:11.777Z,17.00
2022-12-08T14:15:40.841Z,17.00
2022-12-08T14:18:24.973Z,21.00
2022-12-08T14:21:21.245Z,15.00
2022-12-08T14:23:49.869Z,26.67
2022-12-08T14:26:18.238Z,17.67
2022-12-08T14:28:46.551Z,15.00
2022-12-08T14:31:15.111Z,23.00
2022-12-08T14:33:43.453Z,18.00
2022-12-08T14:36:14.859Z,17.00
2022-12-08T14:38:43.136Z,22.00
2022-12-08T14:41:12.398Z,16.00
2022-12-08T14:43:43.502Z,23.00
2022-12-08T14:46:22.501Z,19.00
2022-12-08T14:48:50.851Z,19.00
2022-12-08T14:51:19.012Z,19.00
2022-12-08T14:53:55.948Z,17.50
2022-12-08T14:56:39.171Z,19.50
2022-12-08T14:59:19.414Z,21.00
2022-12-08T15:01:50.318Z,20.50
2022-12-08T15:04:21.063Z,21.00
2022-12-08T15:07:03.138Z,18.50
2022-12-08T15:09:41.191Z,15.50
2022-12-08T15:12:12.355Z,19.00
2022-12-08T15:15:09.781Z,18.33
2022-12-08T15:17:40.988Z,20.67
2022-12-08T15:20:48.666Z,18.50
2022-12-08T15:23:28.801Z,19.33
2022-12-08T15:25:57.844Z,14.00
2022-12-08T15:28:30.252Z,17.67
2022-12-08T15:30:59.227Z,18.50
2022-12-08T15:35:55.603Z,20.00
2022-12-08T15:38:31.676Z,18.00
2022-12-08T15:41:00.625Z,13.50
2022-12-08T15:43:29.934Z,19.50
2022-12-08T15:46:00.126Z,25.67
2022-12-08T15:48:30.561Z,18.67
2022-12-08T15:50:59.512Z,19.00
2022-12-08T15:53:27.915Z,17.00
2022-12-08T15:58:53.713Z,19.00
2022-12-08T16:01:22.970Z,13.33
2022-12-08T16:09:41.061Z,19.00
2022-12-08T16:13:26.907Z,18.33
2022-12-08T16:15:50.128Z,23.00
2022-12-08T16:18:23.361Z,21.00
2022-12-08T16:21:10.289Z,18.00
2022-12-08T16:23:43.617Z,18.67
2022-12-08T16:26:39.439Z,20.50
2022-12-08T16:29:06.267Z,19.00
2022-12-08T16:31:34.899Z,17.00
2022-12-08T16:34:03.164Z,19.00
2022-12-08T16:36:31.363Z,19.00
2022-12-08T16:38:59.563Z,19.00
2022-12-08T16:41:46.455Z,26.00
2022-12-08T16:44:14.705Z,20.33
2022-12-08T16:46:42.950Z,21.00
2022-12-08T16:49:11.240Z,18.00
2022-12-08T16:51:42.657Z,17.00
2022-12-08T16:54:11.100Z,39.00
2022-12-08T16:56:39.320Z,32.00
2022-12-08T16:59:07.488Z,22.00
2022-12-08T17:01:36.639Z,24.00
2022-12-08T17:04:30.461Z,36.50
2022-12-08T17:06:53.383Z,20.00
2022-12-08T17:09:21.619Z,22.33
2022-12-08T17:11:49.819Z,18.00
2022-12-08T17:14:18.347Z,18.00
2022-12-08T17:16:46.624Z,18.00
2022-12-08T17:19:15.752Z,17.50
2022-12-08T17:21:44.851Z,22.50
2022-12-08T17:24:15.971Z,14.00
2022-12-08T17:26:48.572Z,23.00
2022-12-08T17:29:18.880Z,20.00
2022-12-08T17:31:47.140Z,22.00
2022-12-08T17:34:15.329Z,24.00
2022-12-08T17:36:43.562Z,25.00
2022-12-08T17:39:18.052Z,30.00
2022-12-08T17:41:47.997Z,25.00
2022-12-08T17:44:18.275Z,22.00
2022-12-08T17:46:52.463Z,27.00
2022-12-08T17:49:24.497Z,23.50
2022-12-08T17:51:54.949Z,24.00
2022-12-08T17:54:23.159Z,22.50
2022-12-08T17:56:51.982Z,38.00
2022-12-08T17:59:20.474Z,40.50
2022-12-08T18:01:48.671Z,37.00
2022-12-08T18:04:16.958Z,34.00
2022-12-08T18:06:45.221Z,39.00
2022-12-08T18:09:13.661Z,31.00
2022-12-08T18:11:42.486Z,40.50
2022-12-08T18:14:11.471Z,21.33
2022-12-08T18:16:42.678Z,33.33
2022-12-08T18:19:12.127Z,39.00
2022-12-08T18:21:41.143Z,35.00
2022-12-08T18:24:17.246Z,32.00
2022-12-08T18:26:45.882Z,31.50
2022-12-08T18:29:14.080Z,31.00
2022-12-08T18:31:42.250Z,32.50
2022-12-08T18:34:10.428Z,33.00
2022-12-08T18:36:38.737Z,24.00
2022-12-08T18:39:10.808Z,29.00
2022-12-08T18:41:39.314Z,26.00
2022-12-08T18:44:07.647Z,28.00
2022-12-08T18:46:35.818Z,23.00
2022-12-08T18:49:03.986Z,23.50
2022-12-08T18:51:32.249Z,28.00
2022-12-08T18:54:00.548Z,24.00
2022-12-08T18:56:30.594Z,30.00
2022-12-08T18:59:03.557Z,22.00
2022-12-08T19:01:34.062Z,23.00
2022-12-08T19:04:27.432Z,20.33
2022-12-08T19:06:53.863Z,26.33
2022-12-08T19:09:22.895Z,19.50
2022-12-08T19:11:51.031Z,25.33
2022-12-08T19:14:22.717Z,28.00
2022-12-08T19:16:55.631Z,24.50
2022-12-08T19:19:24.777Z,30.00
2022-12-08T19:21:53.016Z,24.50
2022-12-08T19:24:21.263Z,26.00
2022-12-08T19:26:49.642Z,30.00
2022-12-08T19:29:17.938Z,22.00
2022-12-08T19:31:46.381Z,26.00
2022-12-08T19:34:15.246Z,23.00
2022-12-08T19:36:43.516Z,30.00
2022-12-08T19:39:34.392Z,21.00
2022-12-08T19:42:21.488Z,24.33
2022-12-08T19:44:55.595Z,22.67
2022-12-08T19:47:25.340Z,24.00
2022-12-08T19:49:55.229Z,27.50
2022-12-08T19:52:23.462Z,24.00
2022-12-08T19:54:51.794Z,18.00
2022-12-08T19:57:20.642Z,23.00
2022-12-08T19:59:54.657Z,21.50
2022-12-08T20:02:24.611Z,25.00
2022-12-08T20:04:53.043Z,29.00
2022-12-08T20:07:21.276Z,19.00
2022-12-08T20:09:49.414Z,24.67
2022-12-08T20:12:17.606Z,17.00
2022-12-08T20:14:46.351Z,23.00
2022-12-08T20:17:14.887Z,21.00
2022-12-08T20:19:43.117Z,21.00
2022-12-08T20:22:11.273Z,22.00
2022-12-08T20:24:39.472Z,25.33
